Change the Weather History Date:

Wednesday, May 13, 2009

  Actual Average Record
Temperature  
Mean Temperature 61 °F -  
Max Temperature 71 °F 59 °F 73 °F (2012)
Min Temperature 51 °F 35 °F 19 °F (1997)
Degree Days  
Heating Degree Days 4    
Growing Degree Days 11 (Base 50)    
Moisture  
Dew Point 41 °F    
Average Humidity 55    
Maximum Humidity 82    
Minimum Humidity 19    
Precipitation  
Precipitation 0.02 in - - ()
Sea Level Pressure  
Sea Level Pressure 29.43 in    
Wind  
Wind Speed 16 mph (SSW)    
Max Wind Speed 25 mph    
Max Gust Speed 39 mph    
Visibility 10 miles    
Events Rain    
Averages and records for this station are not official NWS values.
T = Trace of Precipitation, MM = Missing Value Source: NWS Daily Summary

Daily Weather History Graph

Daily Weather History Graph

Search for Another Location

Airport or City:

Trip Planner

Search our weather history database for the weather conditions in past years. The results will help you decide how hot, cold, wet, or windy it might be!

Date:

Astronomy

May. 13, 2009 Rise Set
Actual Time 5:31 AM CDT 8:36 PM CDT
Civil Twilight 4:54 AM CDT 9:13 PM CDT
Nautical Twilight 4:07 AM CDT 10:01 PM CDT
Astronomical Twilight 3:09 AM CDT 11:00 PM CDT
Moon 12:24 AM CDT (5/13) 8:32 AM CDT (5/13)
Length of Visible Light 16h 18m
Length of Day
15h 05m
Waning Gibbous, 82% of the Moon is Illuminated
May 13
Waning Gibbous
May 17
Last Quarter
May 24
New
May 30
First Quarter
Jun 7
Full

Hourly Weather History & Observations

Time (CDT) Temp. Windchill Dew Point Humidity Pressure Visibility Wind Dir Wind Speed Gust Speed Precip Events Conditions
12:14 AM 55.4 °F - 39.2 °F 54% 29.62 in 10.0 mi South 11.5 mph - N/A   Overcast
12:33 AM 55.4 °F - 39.2 °F 54% 29.62 in 10.0 mi South 12.7 mph - N/A   Overcast
12:53 AM 55.4 °F - 39.2 °F 54% 29.61 in 10.0 mi South 9.2 mph 17.3 mph N/A   Overcast
1:14 AM 55.4 °F - 42.8 °F 63% 29.61 in 10.0 mi South 10.4 mph 17.3 mph N/A   Overcast
1:34 AM 55.4 °F - 44.6 °F 67% 29.59 in 10.0 mi South 16.1 mph 20.7 mph N/A   Overcast
1:53 AM 57.2 °F - 44.6 °F 63% 29.58 in 10.0 mi South 12.7 mph 21.9 mph N/A   Overcast
2:13 AM 55.4 °F - 44.6 °F 67% 29.56 in 10.0 mi South 12.7 mph 19.6 mph N/A   Overcast
2:34 AM 55.4 °F - 44.6 °F 67% 29.56 in 10.0 mi South 15.0 mph 21.9 mph N/A   Overcast
2:54 AM 55.4 °F - 44.6 °F 67% 29.54 in 10.0 mi South 23.0 mph 29.9 mph N/A   Overcast
3:13 AM 55.4 °F - 44.6 °F 67% 29.54 in 10.0 mi South 19.6 mph 26.5 mph N/A   Overcast
3:33 AM 55.4 °F - 44.6 °F 67% 29.54 in 10.0 mi South 12.7 mph 24.2 mph N/A   Overcast
3:53 AM 53.6 °F - 46.4 °F 77% 29.53 in 10.0 mi South 16.1 mph 25.3 mph 0.02 in Rain Light Rain
4:13 AM 53.6 °F - 46.4 °F 77% 29.51 in 10.0 mi South 17.3 mph 23.0 mph N/A   Light Drizzle
4:34 AM 53.6 °F - 46.4 °F 77% 29.50 in 10.0 mi South 13.8 mph 24.2 mph N/A Rain Light Rain
4:53 AM 53.6 °F - 46.4 °F 77% 29.49 in 10.0 mi South 18.4 mph 23.0 mph N/A Rain Rain
5:13 AM 53.6 °F - 46.4 °F 77% 29.48 in 10.0 mi South 15.0 mph 24.2 mph N/A Rain Light Rain
5:34 AM 53.6 °F - 46.4 °F 77% 29.45 in 10.0 mi South 16.1 mph 25.3 mph N/A Rain Light Rain
5:53 AM 53.6 °F - 46.4 °F 77% 29.43 in 10.0 mi South 19.6 mph 28.8 mph N/A Rain Light Rain
6:14 AM 53.6 °F - 46.4 °F 77% 29.42 in 10.0 mi South 18.4 mph 24.2 mph N/A   Overcast
6:34 AM 53.6 °F - 46.4 °F 77% 29.41 in 10.0 mi South 23.0 mph 31.1 mph N/A   Overcast
6:53 AM 53.6 °F - 46.4 °F 77% 29.42 in 10.0 mi South 18.4 mph 33.4 mph N/A   Overcast
7:13 AM 53.6 °F - 46.4 °F 77% 29.44 in 10.0 mi South 16.1 mph 29.9 mph N/A   Overcast
7:33 AM 53.6 °F - 46.4 °F 77% 29.43 in 7.0 mi South 18.4 mph 26.5 mph N/A   Overcast
7:53 AM 51.8 °F - 46.4 °F 82% 29.42 in 4.0 mi South 17.3 mph 24.2 mph N/A   Drizzle
8:13 AM 51.8 °F - 46.4 °F 82% 29.41 in 7.0 mi South 16.1 mph 25.3 mph N/A   Light Drizzle
8:34 AM 53.6 °F - 46.4 °F 77% 29.41 in 10.0 mi South 15.0 mph 21.9 mph N/A Rain Light Rain
8:54 AM 53.6 °F - 46.4 °F 77% 29.41 in 7.0 mi South 11.5 mph 24.2 mph N/A   Light Drizzle
9:13 AM 53.6 °F - 48.2 °F 82% 29.41 in 10.0 mi SSW 13.8 mph 24.2 mph N/A   Overcast
9:33 AM 53.6 °F - 48.2 °F 82% 29.40 in 10.0 mi South 11.5 mph 20.7 mph N/A   Overcast
9:53 AM 55.4 °F - 48.2 °F 77% 29.39 in 10.0 mi SSW 13.8 mph 21.9 mph N/A   Overcast
10:13 AM 57.2 °F - 48.2 °F 72% 29.39 in 10.0 mi SSW 16.1 mph 25.3 mph N/A   Overcast
10:33 AM 59.0 °F - 48.2 °F 67% 29.38 in 10.0 mi SSW 19.6 mph 25.3 mph N/A   Overcast
10:53 AM 59.0 °F - 48.2 °F 67% 29.38 in 10.0 mi SSW 17.3 mph 25.3 mph N/A   Overcast
11:13 AM 60.8 °F - 48.2 °F 63% 29.39 in 10.0 mi SSW 12.7 mph 21.9 mph N/A   Overcast
11:34 AM 64.4 °F - 48.2 °F 56% 29.37 in 10.0 mi SSW 21.9 mph 26.5 mph N/A   Mostly Cloudy
11:53 AM 64.4 °F - 48.2 °F 56% 29.37 in 10.0 mi SSW 20.7 mph 27.6 mph N/A   Scattered Clouds
12:13 PM 66.2 °F - 46.4 °F 49% 29.37 in 10.0 mi SW 18.4 mph 39.1 mph N/A   Mostly Cloudy
12:33 PM 66.2 °F - 42.8 °F 43% 29.37 in 10.0 mi SW 19.6 mph 27.6 mph N/A   Scattered Clouds
12:53 PM 68.0 °F - 37.4 °F 33% 29.37 in 10.0 mi SW 16.1 mph 28.8 mph N/A   Scattered Clouds
1:13 PM 68.0 °F - 35.6 °F 30% 29.37 in 10.0 mi WSW 16.1 mph 32.2 mph N/A   Clear
1:33 PM 69.8 °F - 33.8 °F 27% 29.37 in 10.0 mi SW 20.7 mph 28.8 mph N/A   Scattered Clouds
1:53 PM 69.8 °F - 33.8 °F 27% 29.37 in 10.0 mi SW 21.9 mph 35.7 mph N/A   Scattered Clouds
2:13 PM 69.8 °F - 32.0 °F 25% 29.37 in 10.0 mi WSW 20.7 mph 33.4 mph N/A   Clear
2:34 PM 69.8 °F - 32.0 °F 25% 29.36 in 10.0 mi SW 23.0 mph 31.1 mph N/A   Clear
2:53 PM 71.6 °F - 30.2 °F 22% 29.36 in 10.0 mi SW 16.1 mph 34.5 mph N/A   Clear
3:13 PM 71.6 °F - - N/A% 29.36 in - SW 24.2 mph 32.2 mph N/A   Unknown
3:34 PM 71.6 °F - 30.2 °F 22% 29.36 in 10.0 mi SW 18.4 mph 34.5 mph N/A   Scattered Clouds
3:53 PM 71.6 °F - 30.2 °F 22% 29.36 in 10.0 mi WSW 25.3 mph 32.2 mph N/A   Scattered Clouds
4:13 PM 71.6 °F - 30.2 °F 22% 29.36 in 10.0 mi WSW 15.0 mph 25.3 mph N/A   Scattered Clouds
4:33 PM 71.6 °F - 26.6 °F 19% 29.37 in 10.0 mi WSW 20.7 mph 28.8 mph N/A   Scattered Clouds
4:54 PM 69.8 °F - 28.4 °F 21% 29.38 in 10.0 mi WSW 16.1 mph 28.8 mph N/A   Scattered Clouds
5:14 PM 69.8 °F - 28.4 °F 21% 29.38 in 10.0 mi WSW 18.4 mph 25.3 mph N/A   Mostly Cloudy
5:34 PM 68.0 °F - 28.4 °F 23% 29.38 in 10.0 mi West 20.7 mph 32.2 mph N/A   Mostly Cloudy
5:53 PM 68.0 °F - 28.4 °F 23% 29.38 in 10.0 mi WSW 21.9 mph 33.4 mph N/A   Mostly Cloudy
6:13 PM 66.2 °F - 30.2 °F 26% 29.38 in 10.0 mi WSW 19.6 mph 29.9 mph N/A   Scattered Clouds
6:34 PM 66.2 °F - 30.2 °F 26% 29.37 in 10.0 mi WSW 15.0 mph 28.8 mph N/A   Mostly Cloudy
6:54 PM 66.2 °F - 32.0 °F 28% 29.37 in 10.0 mi WSW 13.8 mph 18.4 mph N/A   Mostly Cloudy
7:13 PM 66.2 °F - 28.4 °F 24% 29.38 in 10.0 mi WSW 16.1 mph 25.3 mph N/A   Scattered Clouds
7:34 PM 64.4 °F - 28.4 °F 26% 29.38 in 10.0 mi WSW 18.4 mph 26.5 mph N/A   Scattered Clouds
7:53 PM 64.4 °F - 28.4 °F 26% 29.38 in 10.0 mi WSW 15.0 mph 27.6 mph N/A   Clear
8:13 PM 62.6 °F - 28.4 °F 27% 29.39 in 10.0 mi WSW 12.7 mph 19.6 mph N/A   Scattered Clouds
8:33 PM 62.6 °F - 30.2 °F 30% 29.40 in 10.0 mi West 12.7 mph 20.7 mph N/A   Mostly Cloudy
8:54 PM 57.2 °F - 33.8 °F 41% 29.42 in 10.0 mi WNW 17.3 mph 21.9 mph N/A   Overcast
9:13 PM 55.4 °F - 35.6 °F 47% 29.42 in 10.0 mi West 9.2 mph - N/A   Overcast
9:33 PM 55.4 °F - 35.6 °F 47% 29.43 in 10.0 mi West 11.5 mph 18.4 mph N/A   Overcast
9:53 PM 55.4 °F - 37.4 °F 51% 29.43 in 10.0 mi West 10.4 mph 17.3 mph N/A   Scattered Clouds
10:13 PM 53.6 °F - 37.4 °F 54% 29.44 in 10.0 mi West 15.0 mph 23.0 mph N/A   Scattered Clouds
10:34 PM 51.8 °F - 41.0 °F 67% 29.46 in 7.0 mi West 20.7 mph - 0.03 in Rain Heavy Rain
10:53 PM 48.2 °F - 39.2 °F 71% 29.45 in 7.0 mi West 18.4 mph 23.0 mph 0.06 in Rain Rain
11:13 PM 46.4 °F 41.5 °F 39.2 °F 76% 29.43 in 10.0 mi West 10.4 mph - 0.01 in Rain Light Rain
11:34 PM 46.4 °F 42.9 °F 41.0 °F 81% 29.43 in 10.0 mi WSW 6.9 mph - 0.02 in   Overcast
11:53 PM 46.4 °F 42.9 °F 41.0 °F 81% 29.43 in 10.0 mi WSW 6.9 mph - 0.02 in   Overcast